createdAt,value
2019-05-22T00:00:47.126Z,0.93
2019-05-22T00:03:23.506Z,1.10
2019-05-22T00:05:58.434Z,0.97
2019-05-22T00:08:40.601Z,1.30
2019-05-22T00:11:13.478Z,1.10
2019-05-22T00:13:48.765Z,1.30
2019-05-22T00:16:22.125Z,1.47
2019-05-22T00:18:56.118Z,1.80
2019-05-22T00:21:30.849Z,1.00
2019-05-22T00:24:08.160Z,1.37
2019-05-22T00:26:44.047Z,1.30
2019-05-22T00:29:17.286Z,1.77
2019-05-22T00:31:52.562Z,2.93
2019-05-22T00:34:26.156Z,1.40
2019-05-22T00:37:14.936Z,1.20
2019-05-22T00:39:51.823Z,1.20
2019-05-22T00:42:24.208Z,1.30
2019-05-22T00:44:59.809Z,1.20
2019-05-22T00:47:35.919Z,1.20
2019-05-22T00:50:33.523Z,5.47
2019-05-22T00:53:29.056Z,1.00
2019-05-22T00:56:03.863Z,2.00
2019-05-22T00:58:42.532Z,1.50
2019-05-22T01:01:44.938Z,1.77
2019-05-22T01:04:22.919Z,0.73
2019-05-22T01:06:58.149Z,1.07
2019-05-22T01:09:39.382Z,2.20
2019-05-22T01:12:19.659Z,0.70
2019-05-22T01:14:53.281Z,0.80
2019-05-22T01:17:29.803Z,0.60
2019-05-22T01:20:06.316Z,3.77
2019-05-22T01:22:57.332Z,1.83
2019-05-22T01:25:48.078Z,0.73
2019-05-22T01:28:24.311Z,0.60
2019-05-22T01:31:05.820Z,0.70
2019-05-22T01:33:47.921Z,0.53
2019-05-22T01:36:30.374Z,0.60
2019-05-22T01:39:32.301Z,0.83
2019-05-22T01:42:14.225Z,1.07
2019-05-22T01:44:59.893Z,0.90
2019-05-22T01:47:44.013Z,1.57
2019-05-22T01:50:41.256Z,0.90
2019-05-22T01:53:15.784Z,0.80
2019-05-22T01:56:08.676Z,1.57
2019-05-22T01:58:45.327Z,0.50
2019-05-22T02:01:22.076Z,1.43
2019-05-22T02:04:01.991Z,0.93
2019-05-22T02:06:35.300Z,0.80
2019-05-22T02:09:31.008Z,0.70
2019-05-22T02:12:13.539Z,0.63
2019-05-22T02:14:53.117Z,1.23
2019-05-22T02:17:29.728Z,2.00
2019-05-22T02:20:02.502Z,0.67
2019-05-22T02:22:38.827Z,0.73
2019-05-22T02:25:13.037Z,0.50
2019-05-22T02:27:48.332Z,0.80
2019-05-22T02:30:23.238Z,0.90
2019-05-22T02:33:04.810Z,0.73
2019-05-22T02:35:39.715Z,1.47
2019-05-22T02:38:12.648Z,0.90
2019-05-22T02:40:46.977Z,1.17
2019-05-22T02:43:23.141Z,1.10
2019-05-22T02:46:10.173Z,1.10
2019-05-22T02:48:46.553Z,1.63
2019-05-22T02:51:20.017Z,1.60
2019-05-22T02:53:54.984Z,1.50
2019-05-22T02:56:29.136Z,1.80
2019-05-22T02:59:08.960Z,1.40
2019-05-22T03:01:43.787Z,1.43
2019-05-22T03:04:17.399Z,1.50
2019-05-22T03:06:53.523Z,1.27
2019-05-22T03:09:31.955Z,1.50
2019-05-22T03:12:11.235Z,1.23
2019-05-22T03:14:49.416Z,1.07
2019-05-22T03:17:30.374Z,2.83
2019-05-22T03:20:17.107Z,1.13
2019-05-22T03:23:03.179Z,1.40
2019-05-22T03:25:37.983Z,2.20
2019-05-22T03:28:13.164Z,1.53
2019-05-22T03:30:45.693Z,1.30
2019-05-22T03:33:23.788Z,2.10
2019-05-22T03:36:21.204Z,1.50
2019-05-22T03:38:55.433Z,1.47
2019-05-22T03:41:30.147Z,1.20
2019-05-22T03:44:04.717Z,1.63
2019-05-22T03:46:50.029Z,1.90
2019-05-22T03:49:30.401Z,1.43
2019-05-22T03:52:00.330Z,1.70
2019-05-22T03:54:33.246Z,3.20
2019-05-22T03:57:08.547Z,1.37
2019-05-22T03:59:40.431Z,1.83
2019-05-22T04:02:20.714Z,1.97
2019-05-22T04:04:55.096Z,1.70
2019-05-22T04:07:31.506Z,1.20
2019-05-22T04:10:05.655Z,1.37
2019-05-22T04:12:56.946Z,1.40
2019-05-22T04:15:29.990Z,1.33
2019-05-22T04:18:16.625Z,1.30
2019-05-22T04:20:55.754Z,2.40
2019-05-22T04:23:29.984Z,1.47
2019-05-22T04:26:07.454Z,2.10
2019-05-22T04:28:50.061Z,2.10
2019-05-22T04:31:49.425Z,1.67
2019-05-22T04:34:23.834Z,5.50
2019-05-22T04:37:13.450Z,1.97
2019-05-22T04:39:48.879Z,2.70
2019-05-22T04:42:20.786Z,4.67
2019-05-22T04:45:12.319Z,1.70
2019-05-22T04:47:58.573Z,1.50
2019-05-22T04:50:32.414Z,1.40
2019-05-22T04:53:06.378Z,1.00
2019-05-22T04:55:40.900Z,2.40
2019-05-22T04:58:18.611Z,1.40
2019-05-22T05:01:11.278Z,3.60
2019-05-22T05:03:45.970Z,1.50
2019-05-22T05:06:19.223Z,1.40
2019-05-22T05:08:55.486Z,1.20
2019-05-22T05:11:43.826Z,1.40
2019-05-22T05:14:18.333Z,1.90
2019-05-22T05:16:58.314Z,2.40
2019-05-22T05:19:33.177Z,3.63
2019-05-22T05:22:13.360Z,1.63
2019-05-22T05:24:45.838Z,1.50
2019-05-22T05:27:18.899Z,1.73
2019-05-22T05:29:50.678Z,1.50
2019-05-22T05:32:23.563Z,3.33
2019-05-22T05:35:02.587Z,1.87
2019-05-22T05:37:42.223Z,1.77
2019-05-22T05:40:29.267Z,2.63
2019-05-22T05:43:21.199Z,2.07
2019-05-22T05:46:11.762Z,2.03
2019-05-22T05:48:44.211Z,2.03
2019-05-22T05:51:29.130Z,2.03
2019-05-22T05:54:09.031Z,3.10
2019-05-22T05:57:13.482Z,2.47
2019-05-22T05:59:56.613Z,3.10
2019-05-22T06:02:30.346Z,2.37
2019-05-22T06:05:02.992Z,4.60
2019-05-22T06:07:36.666Z,3.80
2019-05-22T06:11:02.245Z,2.70
2019-05-22T06:13:37.285Z,1.83
2019-05-22T06:16:56.043Z,2.40
2019-05-22T06:19:30.632Z,2.17
2019-05-22T06:22:04.504Z,2.07
2019-05-22T06:24:59.895Z,5.33
2019-05-22T06:27:55.825Z,2.50
2019-05-22T06:30:44.963Z,2.30
2019-05-22T06:33:43.876Z,2.10
2019-05-22T06:36:22.414Z,2.80
2019-05-22T06:39:07.851Z,3.53
2019-05-22T06:41:40.915Z,2.30
2019-05-22T06:44:43.333Z,6.40
2019-05-22T06:47:21.008Z,5.17
2019-05-22T06:50:00.630Z,2.20
2019-05-22T06:52:50.260Z,2.30
2019-05-22T06:55:25.239Z,2.40
2019-05-22T06:58:00.864Z,2.20
2019-05-22T07:00:43.865Z,2.30
2019-05-22T07:03:19.571Z,2.03
2019-05-22T07:05:51.705Z,2.30
2019-05-22T07:08:24.865Z,1.83
2019-05-22T07:11:15.003Z,3.50
2019-05-22T07:13:49.530Z,3.70
2019-05-22T07:16:21.091Z,1.70
2019-05-22T07:18:57.341Z,10.00
2019-05-22T07:21:33.871Z,2.13
2019-05-22T07:24:06.123Z,1.63
2019-05-22T07:26:42.106Z,2.70
2019-05-22T07:29:18.176Z,1.70
2019-05-22T07:31:52.009Z,1.60
2019-05-22T07:34:26.219Z,1.73
2019-05-22T07:37:01.267Z,1.60
2019-05-22T07:39:36.636Z,2.20
2019-05-22T07:42:09.455Z,1.30
2019-05-22T07:44:41.523Z,1.80
2019-05-22T07:47:18.691Z,1.00
2019-05-22T07:49:58.057Z,1.23
2019-05-22T07:52:32.051Z,1.70
2019-05-22T07:55:08.882Z,1.13
2019-05-22T07:57:45.638Z,1.90
2019-05-22T08:00:18.675Z,1.50
2019-05-22T08:02:52.492Z,2.13
2019-05-22T08:05:25.507Z,1.40
2019-05-22T08:07:57.403Z,1.70
2019-05-22T08:10:32.645Z,3.27
2019-05-22T08:13:09.456Z,3.73
2019-05-22T08:15:41.285Z,1.60
2019-05-22T08:18:17.744Z,1.60
2019-05-22T08:21:08.217Z,3.80
2019-05-22T08:23:43.516Z,1.90
2019-05-22T08:26:16.853Z,2.40
2019-05-22T08:28:48.398Z,2.13
2019-05-22T08:31:23.089Z,2.20
2019-05-22T08:34:02.304Z,1.50
2019-05-22T08:36:38.626Z,2.50
2019-05-22T08:39:10.817Z,2.37
2019-05-22T08:41:45.648Z,2.33
2019-05-22T08:44:17.918Z,2.83
2019-05-22T08:46:49.585Z,2.13
2019-05-22T08:49:23.922Z,2.40
2019-05-22T08:51:58.509Z,3.47
2019-05-22T08:54:48.884Z,1.77
2019-05-22T08:57:21.223Z,1.90
2019-05-22T08:59:56.816Z,1.90
2019-05-22T09:02:32.623Z,2.13
2019-05-22T09:05:08.157Z,1.60
2019-05-22T09:07:44.982Z,1.60
2019-05-22T09:10:26.229Z,1.53
2019-05-22T09:13:00.740Z,2.63
2019-05-22T09:15:46.126Z,1.33
2019-05-22T09:18:18.656Z,1.70
2019-05-22T09:20:52.071Z,2.40
2019-05-22T09:23:23.644Z,1.57
2019-05-22T09:25:56.773Z,4.70
2019-05-22T09:28:30.898Z,2.00
2019-05-22T09:31:05.766Z,3.03
2019-05-22T09:33:41.482Z,1.97
2019-05-22T09:36:17.597Z,1.80
2019-05-22T09:38:52.796Z,2.03
2019-05-22T09:41:29.014Z,2.27
2019-05-22T09:44:01.930Z,1.90
2019-05-22T09:46:35.953Z,2.30
2019-05-22T09:49:23.904Z,2.77
2019-05-22T09:51:58.737Z,3.33
2019-05-22T09:54:33.123Z,4.00
2019-05-22T09:57:09.076Z,2.60
2019-05-22T09:59:59.061Z,4.23
2019-05-22T10:02:35.025Z,2.67
2019-05-22T10:05:09.995Z,2.90
2019-05-22T10:08:02.104Z,4.87
2019-05-22T10:10:50.212Z,2.60
2019-05-22T10:13:24.705Z,3.03
2019-05-22T10:15:59.396Z,2.70
2019-05-22T10:18:31.960Z,2.90
2019-05-22T10:21:09.674Z,3.17
2019-05-22T10:23:48.536Z,2.60
2019-05-22T10:26:21.839Z,2.87
2019-05-22T10:29:12.391Z,2.90
2019-05-22T10:31:47.669Z,3.20
2019-05-22T10:34:27.040Z,2.97
2019-05-22T10:37:01.422Z,2.93
2019-05-22T10:39:34.623Z,3.50
2019-05-22T10:42:10.218Z,3.53
2019-05-22T10:44:47.966Z,3.07
2019-05-22T10:47:22.139Z,3.43
2019-05-22T10:50:08.292Z,3.47
2019-05-22T10:52:42.923Z,3.20
2019-05-22T10:55:16.181Z,3.40
2019-05-22T10:58:07.153Z,3.10
2019-05-22T11:00:39.217Z,2.70
2019-05-22T11:03:15.564Z,3.20
2019-05-22T11:06:07.955Z,3.13
2019-05-22T11:08:43.345Z,5.50
2019-05-22T11:11:16.963Z,3.43
2019-05-22T11:14:00.589Z,3.73
2019-05-22T11:16:28.607Z,3.60
2019-05-22T11:19:11.308Z,3.43
2019-05-22T11:22:01.508Z,3.73
2019-05-22T11:24:42.493Z,4.03
2019-05-22T11:27:15.876Z,3.20
2019-05-22T11:29:49.109Z,5.40
2019-05-22T11:32:27.837Z,4.73
2019-05-22T11:35:06.771Z,3.77
2019-05-22T11:37:40.960Z,3.83
2019-05-22T11:40:12.973Z,3.23
2019-05-22T11:42:47.983Z,3.80
2019-05-22T11:45:22.395Z,3.83
2019-05-22T11:47:56.039Z,4.20
2019-05-22T11:50:33.331Z,3.23
2019-05-22T11:53:08.770Z,3.63
2019-05-22T11:55:59.984Z,4.53
2019-05-22T11:58:33.513Z,3.90
2019-05-22T12:01:07.262Z,4.53
2019-05-22T12:03:40.498Z,3.50
2019-05-22T12:06:12.245Z,4.70
2019-05-22T12:09:04.065Z,3.90
2019-05-22T12:11:49.115Z,4.17
2019-05-22T12:14:21.996Z,4.30
2019-05-22T12:17:00.311Z,4.60
2019-05-22T12:19:35.091Z,4.20
2019-05-22T12:22:25.208Z,5.13
2019-05-22T12:24:59.406Z,4.87
2019-05-22T12:27:34.322Z,5.30
2019-05-22T12:30:08.977Z,5.53
2019-05-22T12:33:19.410Z,8.10
2019-05-22T12:35:53.022Z,5.53
2019-05-22T12:38:27.237Z,7.13
2019-05-22T12:41:02.262Z,6.43
2019-05-22T12:43:36.663Z,6.30
2019-05-22T12:46:13.277Z,6.03
2019-05-22T12:48:47.995Z,5.87
2019-05-22T12:51:39.455Z,7.50
2019-05-22T12:54:12.684Z,7.67
2019-05-22T12:56:47.115Z,6.87
2019-05-22T12:59:19.761Z,8.50
2019-05-22T13:01:54.633Z,7.40
2019-05-22T13:04:29.311Z,8.20
2019-05-22T13:07:03.362Z,7.40
2019-05-22T13:09:37.265Z,6.87
2019-05-22T13:12:10.482Z,8.60
2019-05-22T13:15:09.954Z,6.90
2019-05-22T13:17:38.015Z,9.33
2019-05-22T13:20:14.823Z,7.10
2019-05-22T13:22:53.592Z,13.47
2019-05-22T13:25:32.899Z,6.43
2019-05-22T13:28:08.904Z,7.03
2019-05-22T13:30:46.884Z,8.10
2019-05-22T13:33:22.127Z,6.30
2019-05-22T13:35:55.151Z,6.27
2019-05-22T13:38:29.771Z,6.43
2019-05-22T13:41:03.920Z,7.30
2019-05-22T13:43:36.002Z,6.50
2019-05-22T13:46:10.779Z,6.50
2019-05-22T13:49:02.564Z,6.47
2019-05-22T13:51:38.138Z,8.00
2019-05-22T13:54:11.445Z,8.00
2019-05-22T13:56:45.804Z,6.53
2019-05-22T13:59:21.264Z,7.17
2019-05-22T14:01:58.607Z,7.83
2019-05-22T14:04:31.595Z,8.13
2019-05-22T14:07:07.020Z,9.53
2019-05-22T14:09:46.904Z,10.67
2019-05-22T14:12:21.712Z,9.20
2019-05-22T14:14:55.943Z,11.00
2019-05-22T14:17:29.944Z,9.60
2019-05-22T14:20:08.473Z,9.47
2019-05-22T14:22:42.229Z,6.90
2019-05-22T14:25:34.093Z,7.17
2019-05-22T14:28:16.709Z,8.10
2019-05-22T14:30:52.225Z,10.63
2019-05-22T14:33:28.052Z,10.27
2019-05-22T14:36:00.715Z,12.60
2019-05-22T14:38:52.312Z,9.47
2019-05-22T14:41:24.177Z,9.43
2019-05-22T14:43:58.727Z,9.53
2019-05-22T14:46:34.365Z,11.83
2019-05-22T14:49:24.447Z,10.27
2019-05-22T14:51:58.351Z,9.00
2019-05-22T14:54:36.435Z,9.90
2019-05-22T14:57:12.459Z,9.40
2019-05-22T14:59:46.779Z,12.13
2019-05-22T15:02:18.768Z,12.47
2019-05-22T15:04:52.203Z,9.63
2019-05-22T15:07:23.990Z,10.37
2019-05-22T15:09:59.138Z,14.73
2019-05-22T15:12:31.198Z,11.50
2019-05-22T15:15:11.191Z,15.07
2019-05-22T15:17:43.407Z,12.57
2019-05-22T15:20:19.015Z,12.00
2019-05-22T15:22:55.593Z,13.03
2019-05-22T15:25:28.387Z,11.17
2019-05-22T15:28:04.598Z,12.73
2019-05-22T15:30:49.764Z,11.83
2019-05-22T15:33:22.890Z,10.57
2019-05-22T15:35:56.017Z,10.77
2019-05-22T15:38:32.561Z,11.20
2019-05-22T15:41:09.531Z,10.87
2019-05-22T15:44:00.044Z,10.37
2019-05-22T15:46:34.302Z,10.03
2019-05-22T15:49:08.897Z,12.73
2019-05-22T15:51:41.176Z,11.37
2019-05-22T15:54:17.966Z,11.30
2019-05-22T15:56:52.242Z,11.37
2019-05-22T15:59:49.280Z,11.67
2019-05-22T16:02:24.492Z,9.30
2019-05-22T16:05:43.135Z,11.07
2019-05-22T16:08:31.035Z,16.43
2019-05-22T16:14:33.921Z,13.60
2019-05-22T16:17:32.239Z,9.90
2019-05-22T16:20:24.719Z,12.60
2019-05-22T16:22:59.568Z,9.73
2019-05-22T16:25:32.348Z,11.80
2019-05-22T16:28:05.532Z,11.47
2019-05-22T16:30:55.642Z,11.67
2019-05-22T16:33:41.736Z,15.20
2019-05-22T16:36:25.938Z,15.77
2019-05-22T16:39:10.036Z,11.43
2019-05-22T16:41:42.022Z,10.90
2019-05-22T16:44:23.458Z,12.30
2019-05-22T16:47:09.785Z,12.37
2019-05-22T16:49:46.396Z,14.03
2019-05-22T16:52:20.073Z,14.60
2019-05-22T16:54:55.722Z,13.17
2019-05-22T16:57:39.676Z,12.67
2019-05-22T17:00:15.388Z,14.57
2019-05-22T17:03:07.078Z,12.13
2019-05-22T17:05:39.840Z,14.03
2019-05-22T17:08:13.557Z,18.23
2019-05-22T17:10:56.328Z,13.83
2019-05-22T17:13:31.797Z,14.27
2019-05-22T17:16:06.910Z,17.50
2019-05-22T17:18:47.648Z,17.73
2019-05-22T17:21:14.056Z,18.43
2019-05-22T17:23:50.750Z,14.30
2019-05-22T17:26:30.135Z,15.80
2019-05-22T17:29:03.632Z,17.13
2019-05-22T17:31:38.565Z,16.50
2019-05-22T17:34:30.458Z,18.00
2019-05-22T17:37:14.520Z,18.17
2019-05-22T17:40:08.841Z,19.50
2019-05-22T17:42:41.147Z,18.93
2019-05-22T17:45:13.577Z,18.40
2019-05-22T17:47:48.063Z,17.17
2019-05-22T17:50:26.701Z,16.50
2019-05-22T17:53:01.056Z,15.00
2019-05-22T17:55:35.289Z,18.73
2019-05-22T17:58:29.993Z,18.07
2019-05-22T18:01:19.751Z,19.53
2019-05-22T18:03:52.329Z,16.70
2019-05-22T18:06:23.981Z,17.10
2019-05-22T18:08:59.668Z,17.73
2019-05-22T18:11:33.049Z,20.07
2019-05-22T18:14:10.673Z,24.83
2019-05-22T18:16:44.810Z,23.30
2019-05-22T18:19:18.459Z,20.37
2019-05-22T18:21:53.146Z,22.00
2019-05-22T18:24:25.824Z,19.57
2019-05-22T18:26:58.128Z,22.53
2019-05-22T18:29:31.960Z,24.20
2019-05-22T18:32:07.398Z,22.43
2019-05-22T18:34:39.458Z,23.43
2019-05-22T18:37:14.325Z,22.10
2019-05-22T18:39:50.475Z,24.90
2019-05-22T18:42:24.086Z,24.50
2019-05-22T18:44:59.222Z,20.93
2019-05-22T18:47:31.282Z,21.30
2019-05-22T18:50:06.657Z,24.43
2019-05-22T18:52:41.367Z,21.60
2019-05-22T18:55:13.675Z,24.80
2019-05-22T18:57:47.847Z,24.00
2019-05-22T19:00:21.750Z,22.63
2019-05-22T19:02:55.102Z,20.27
2019-05-22T19:05:29.992Z,22.10
2019-05-22T19:08:05.187Z,20.93
2019-05-22T19:10:38.786Z,24.10
2019-05-22T19:13:14.384Z,21.33
2019-05-22T19:15:48.469Z,24.00
2019-05-22T19:18:33.982Z,23.60
2019-05-22T19:21:07.671Z,28.87
2019-05-22T19:23:40.636Z,23.57
2019-05-22T19:26:12.586Z,25.30
2019-05-22T19:28:48.857Z,25.10
2019-05-22T19:31:20.751Z,27.80
2019-05-22T19:33:54.779Z,23.70
2019-05-22T19:36:30.480Z,21.73
2019-05-22T19:39:19.912Z,24.00
2019-05-22T19:42:11.380Z,24.70
2019-05-22T19:44:46.076Z,22.60
2019-05-22T19:47:22.738Z,26.23
2019-05-22T19:49:57.047Z,19.80
2019-05-22T19:52:46.869Z,19.73
2019-05-22T19:55:20.004Z,24.00
2019-05-22T19:57:52.774Z,20.50
2019-05-22T20:00:31.771Z,18.33
2019-05-22T20:03:07.264Z,19.33
2019-05-22T20:05:41.911Z,17.27
2019-05-22T20:08:36.167Z,20.07
2019-05-22T20:11:11.461Z,18.90
2019-05-22T20:13:45.792Z,19.53
2019-05-22T20:16:19.552Z,21.03
2019-05-22T20:19:02.308Z,20.73
2019-05-22T20:21:35.782Z,21.47
2019-05-22T20:24:13.003Z,24.27
2019-05-22T20:26:47.736Z,28.53
2019-05-22T20:29:23.684Z,24.33
2019-05-22T20:31:57.922Z,26.60
2019-05-22T20:34:31.815Z,26.30
2019-05-22T20:37:18.248Z,25.37
2019-05-22T20:40:10.757Z,25.27
2019-05-22T20:43:24.478Z,24.30
2019-05-22T20:45:56.914Z,25.13
2019-05-22T20:48:33.352Z,23.10
2019-05-22T20:51:05.829Z,23.70
2019-05-22T20:53:56.378Z,26.37
2019-05-22T20:57:13.543Z,24.90
2019-05-22T21:00:23.602Z,27.70
2019-05-22T21:03:16.133Z,27.00
2019-05-22T21:10:23.747Z,25.30
2019-05-22T21:17:15.493Z,28.40
2019-05-22T21:19:52.693Z,24.80
2019-05-22T21:22:28.370Z,21.40
2019-05-22T21:25:15.980Z,26.33
2019-05-22T21:27:50.258Z,23.70
2019-05-22T21:30:43.582Z,22.10
2019-05-22T21:33:55.672Z,23.43
2019-05-22T21:36:32.063Z,23.97
2019-05-22T21:39:40.775Z,19.83
2019-05-22T21:42:55.627Z,23.00
2019-05-22T21:45:29.060Z,21.33
2019-05-22T21:48:01.972Z,23.30
2019-05-22T21:50:35.366Z,23.00
2019-05-22T21:53:12.644Z,20.47
2019-05-22T21:56:03.613Z,23.07
2019-05-22T21:58:22.014Z,22.13
2019-05-22T22:01:17.379Z,20.20
2019-05-22T22:03:57.389Z,21.13
2019-05-22T22:06:33.450Z,21.47
2019-05-22T22:09:43.670Z,20.60
2019-05-22T22:12:20.910Z,22.37
2019-05-22T22:15:07.586Z,24.73
2019-05-22T22:17:43.619Z,22.77
2019-05-22T22:20:34.904Z,21.37
2019-05-22T22:23:36.592Z,21.10
2019-05-22T22:26:57.132Z,22.50
2019-05-22T22:29:33.669Z,19.67
2019-05-22T22:32:22.549Z,23.63
2019-05-22T22:35:15.833Z,22.83
2019-05-22T22:39:09.760Z,18.00
2019-05-22T22:42:04.524Z,19.50
2019-05-22T22:44:41.341Z,15.90
2019-05-22T22:47:26.914Z,16.70
2019-05-22T22:50:21.891Z,17.13
2019-05-22T22:53:02.958Z,18.17
2019-05-22T22:55:36.918Z,15.43
2019-05-22T22:58:47.997Z,15.50
2019-05-22T23:01:33.948Z,15.87
2019-05-22T23:04:18.531Z,14.63
2019-05-22T23:08:08.652Z,14.40
2019-05-22T23:12:28.338Z,17.37
2019-05-22T23:15:12.485Z,13.83
2019-05-22T23:18:59.994Z,14.67
2019-05-22T23:25:09.431Z,18.63
2019-05-22T23:32:12.403Z,18.47
2019-05-22T23:33:51.730Z,16.70
2019-05-22T23:35:25.644Z,16.90
2019-05-22T23:37:59.213Z,15.70
2019-05-22T23:44:23.665Z,17.53
2019-05-22T23:47:00.303Z,13.80
2019-05-22T23:49:32.201Z,14.10
2019-05-22T23:52:36.662Z,18.50
2019-05-22T23:55:29.760Z,14.60
2019-05-22T23:58:32.690Z,14.57
